Gaithersburg, MD

2:33 PM EDT on October 22, 2017 (GMT -0400)
Montgomery County

Weather History for KGAI - March, 2013

Change the Weather History Date:

Monday, March 4, 2013

  Actual Average (KCGS) Record (KCGS)
Temperature  
Mean Temperature 34 °F -  
Max Temperature 41 °F 51 °F 79 °F (1974)
Min Temperature 26 °F 33 °F 6 °F (2014)
Degree Days  
Heating Degree Days 32    
Moisture  
Dew Point 15 °F    
Average Humidity 48    
Maximum Humidity 59    
Minimum Humidity 36    
Precipitation  
Precipitation 0.00 in - - ()
Sea Level Pressure  
Sea Level Pressure 29.99 in    
Wind  
Wind Speed 14 mph (NW)    
Max Wind Speed 22 mph    
Max Gust Speed 33 mph    
Visibility 10 miles    
Events      
Averages and records for this station are not official NWS values.
T = Trace of Precipitation, MM = Missing Value Source: NWS Daily Summary

Daily Weather History Graph

Daily Weather History Graph

Search for Another Location

Airport or City:

Trip Planner

Search our weather history database for the weather conditions in past years. The results will help you decide how hot, cold, wet, or windy it might be!

Date:

Astronomy

Mar. 04, 2013 Rise Set
Actual Time 6:36 AM EST 6:04 PM EST
Civil Twilight 6:09 AM EST 6:31 PM EST
Nautical Twilight 5:38 AM EST 7:02 PM EST
Astronomical Twilight 5:07 AM EST 7:33 PM EST
Moon 12:42 AM EST (3/4) 10:46 AM EST (3/4)
Length of Visible Light 12h 21m
Length of Day
11h 28m
Waning Gibbous, 52% of the Moon is Illuminated
Mar 4
Waning Gibbous
Mar 4
Last Quarter
Mar 11
New
Mar 19
First Quarter
Mar 27
Full

Hourly Weather History & Observations

Time (EST) Temp. Windchill Dew Point Humidity Pressure Visibility Wind Dir Wind Speed Gust Speed Precip Events Conditions
12:15 AM 30.2 °F 21.3 °F 15.8 °F 55% 29.93 in 10.0 mi NW 10.4 mph 18.4 mph N/A   Overcast
12:35 AM 28.4 °F 17.0 °F 15.8 °F 59% 29.93 in 10.0 mi NW 15.0 mph 19.6 mph N/A   Overcast
12:55 AM 28.4 °F 15.8 °F 15.8 °F 59% 29.93 in 10.0 mi NW 18.4 mph 24.2 mph N/A   Overcast
1:15 AM 28.4 °F 17.0 °F 15.8 °F 59% 29.93 in 10.0 mi NW 15.0 mph - N/A   Overcast
1:35 AM 28.4 °F 16.6 °F 15.8 °F 59% 29.93 in 10.0 mi NW 16.1 mph 24.2 mph N/A   Overcast
1:55 AM 28.4 °F 16.6 °F 15.8 °F 59% 29.93 in 10.0 mi NW 16.1 mph 21.9 mph N/A   Overcast
2:15 AM 28.4 °F 17.5 °F 15.8 °F 59% 29.93 in 10.0 mi NW 13.8 mph 23.0 mph N/A   Overcast
2:35 AM 28.4 °F 16.6 °F 15.8 °F 59% 29.93 in 10.0 mi NW 16.1 mph 23.0 mph N/A   Overcast
2:55 AM 28.4 °F 20.4 °F 15.8 °F 59% 29.93 in 10.0 mi NNW 8.1 mph 20.7 mph N/A   Overcast
3:15 AM 28.4 °F 15.4 °F 15.8 °F 59% 29.93 in 10.0 mi NW 19.6 mph 26.5 mph N/A   Overcast
3:35 AM 28.4 °F 18.0 °F 15.8 °F 59% 29.94 in 10.0 mi NNW 12.7 mph 20.7 mph N/A   Mostly Cloudy
3:55 AM 26.6 °F 14.3 °F 12.2 °F 55% 29.94 in 10.0 mi NW 16.1 mph 21.9 mph N/A   Scattered Clouds
4:15 AM 26.6 °F 14.3 °F 12.2 °F 55% 29.95 in 10.0 mi NW 16.1 mph 21.9 mph N/A   Clear
4:35 AM 26.6 °F 15.2 °F 12.2 °F 55% 29.95 in 10.0 mi NNW 13.8 mph 23.0 mph N/A   Clear
4:55 AM 26.6 °F 15.7 °F 12.2 °F 55% 29.96 in 10.0 mi NW 12.7 mph 21.9 mph N/A   Clear
5:15 AM 26.6 °F 16.2 °F 12.2 °F 55% 29.96 in 10.0 mi NNW 11.5 mph 18.4 mph N/A   Clear
5:35 AM 26.6 °F 15.7 °F 12.2 °F 55% 29.96 in 10.0 mi NW 12.7 mph 17.3 mph N/A   Clear
5:55 AM 26.6 °F 15.2 °F 12.2 °F 55% 29.97 in 10.0 mi NW 13.8 mph 19.6 mph N/A   Clear
6:15 AM 26.6 °F 15.2 °F 12.2 °F 55% 29.98 in 10.0 mi NNW 13.8 mph 20.7 mph N/A   Clear
6:35 AM 26.6 °F 17.5 °F 12.2 °F 55% 29.98 in 10.0 mi NNW 9.2 mph 20.7 mph N/A   Clear
6:55 AM 26.6 °F 13.8 °F 12.2 °F 55% 29.98 in 10.0 mi NNW 17.3 mph 23.0 mph N/A   Clear
7:15 AM 26.6 °F 15.2 °F 12.2 °F 55% 29.99 in 10.0 mi NW 13.8 mph 21.9 mph N/A   Clear
7:35 AM 26.6 °F 13.4 °F 12.2 °F 55% 29.99 in 10.0 mi NW 18.4 mph 26.5 mph N/A   Clear
7:55 AM 28.4 °F 17.5 °F 12.2 °F 51% 30.00 in 10.0 mi NW 13.8 mph 27.6 mph N/A   Clear
8:15 AM 28.4 °F 17.0 °F 12.2 °F 51% 30.01 in 10.0 mi NW 15.0 mph 23.0 mph N/A   Clear
8:35 AM 28.4 °F 16.6 °F 12.2 °F 51% 30.01 in 10.0 mi NNW 16.1 mph 28.8 mph N/A   Clear
8:55 AM 30.2 °F 17.8 °F 14.0 °F 51% 30.01 in 10.0 mi NW 19.6 mph 27.6 mph N/A   Clear
9:15 AM 30.2 °F 19.8 °F 12.2 °F 47% 30.01 in 10.0 mi NNW 13.8 mph 26.5 mph N/A   Clear
9:35 AM 30.2 °F 18.1 °F 12.2 °F 47% 30.01 in 10.0 mi NNW 18.4 mph 29.9 mph N/A   Partly Cloudy
9:55 AM 32.0 °F 20.8 °F 14.0 °F 48% 30.01 in 10.0 mi NW 17.3 mph 24.2 mph N/A   Clear
10:15 AM 33.8 °F 24.8 °F 14.0 °F 44% 30.01 in 10.0 mi NNW 12.7 mph 26.5 mph N/A   Clear
10:35 AM 33.8 °F 22.2 °F 14.0 °F 44% 30.01 in 10.0 mi WNW 20.7 mph 26.5 mph N/A   Mostly Cloudy
10:55 AM 33.8 °F 21.9 °F 15.8 °F 48% 30.01 in 10.0 mi NW 21.9 mph 33.4 mph N/A   Mostly Cloudy
11:15 AM 33.8 °F 22.5 °F 15.8 °F 48% 30.01 in 10.0 mi NW 19.6 mph 31.1 mph N/A   Partly Cloudy
11:35 AM 35.6 °F 24.5 °F 15.8 °F 44% 30.01 in 10.0 mi NW 20.7 mph 29.9 mph N/A   Clear
11:55 AM 35.6 °F 24.8 °F 15.8 °F 44% 30.01 in 10.0 mi NNW 19.6 mph 27.6 mph N/A   Partly Cloudy
12:15 PM 35.6 °F 25.5 °F 15.8 °F 44% 30.01 in 10.0 mi NNW 17.3 mph 31.1 mph N/A   Scattered Clouds
12:35 PM 35.6 °F 24.2 °F 14.0 °F 41% 30.00 in 10.0 mi NW 21.9 mph 33.4 mph N/A   Partly Cloudy
12:55 PM 37.4 °F 27.2 °F 15.8 °F 41% 29.99 in 10.0 mi NW 19.6 mph 26.5 mph N/A   Clear
1:15 PM 37.4 °F 27.8 °F 15.8 °F 41% 29.98 in 10.0 mi NNW 17.3 mph 26.5 mph N/A   Clear
1:55 PM 37.4 °F 32.1 °F 15.8 °F 41% 29.96 in 10.0 mi NNW 6.9 mph 24.2 mph N/A   Clear
2:15 PM 39.2 °F 32.0 °F 15.8 °F 39% 29.96 in 10.0 mi NNW 11.5 mph 26.5 mph N/A   Clear
2:35 PM 39.2 °F 30.5 °F 17.6 °F 42% 29.96 in 10.0 mi NNW 16.1 mph 27.6 mph N/A   Clear
2:55 PM 39.2 °F 30.2 °F 15.8 °F 39% 29.96 in 10.0 mi NW 17.3 mph 28.8 mph N/A   Clear
3:15 PM 39.2 °F 30.5 °F 15.8 °F 39% 29.96 in 10.0 mi NNW 16.1 mph 24.2 mph N/A   Clear
3:35 PM 39.2 °F 32.5 °F 15.8 °F 39% 29.96 in 10.0 mi NNW 10.4 mph 23.0 mph N/A   Clear
3:55 PM 41.0 °F 34.3 °F 15.8 °F 36% 29.96 in 10.0 mi NW 11.5 mph 19.6 mph N/A   Clear
4:15 PM 41.0 °F 32.5 °F 15.8 °F 36% 29.96 in 10.0 mi NW 17.3 mph 23.0 mph N/A   Clear
4:35 PM 39.2 °F 29.8 °F 15.8 °F 39% 29.96 in 10.0 mi NW 18.4 mph 21.9 mph N/A   Clear
4:55 PM 39.2 °F 29.8 °F 15.8 °F 39% 29.97 in 10.0 mi WNW 18.4 mph - N/A   Clear
5:15 PM 39.2 °F 32.5 °F 15.8 °F 39% 29.98 in 10.0 mi NNW 10.4 mph 19.6 mph N/A   Clear
5:35 PM 37.4 °F 31.4 °F 14.0 °F 38% 29.99 in 10.0 mi NW 8.1 mph 18.4 mph N/A   Clear
5:55 PM 37.4 °F 31.4 °F 14.0 °F 38% 29.99 in 10.0 mi NNW 8.1 mph 16.1 mph N/A   Clear
6:15 PM 35.6 °F 31.7 °F 14.0 °F 41% 30.00 in 10.0 mi NNW 4.6 mph - N/A   Clear
6:35 PM 35.6 °F 29.9 °F 14.0 °F 41% 30.00 in 10.0 mi NNW 6.9 mph - N/A   Clear
6:55 PM 35.6 °F 29.9 °F 14.0 °F 41% 30.01 in 10.0 mi NNW 6.9 mph - N/A   Clear
7:15 PM 35.6 °F 30.7 °F 14.0 °F 41% 30.01 in 10.0 mi NNW 5.8 mph - N/A   Clear
7:35 PM 33.8 °F 28.6 °F 14.0 °F 44% 30.02 in 10.0 mi North 5.8 mph - N/A   Clear
7:55 PM 33.8 °F 30.8 °F 15.8 °F 48% 30.02 in 10.0 mi North 3.5 mph - N/A   Clear
8:15 PM 33.8 °F 30.8 °F 14.0 °F 44% 30.03 in 10.0 mi NNW 3.5 mph - N/A   Clear
8:35 PM 33.8 °F 30.8 °F 14.0 °F 44% 30.04 in 10.0 mi NW 3.5 mph - N/A   Clear
8:55 PM 33.8 °F 28.6 °F 14.0 °F 44% 30.04 in 10.0 mi NNW 5.8 mph - N/A   Clear
9:35 PM 33.8 °F 28.6 °F 15.8 °F 48% 30.04 in 10.0 mi NNW 5.8 mph - N/A   Clear
9:55 PM 33.8 °F 28.6 °F 15.8 °F 48% 30.04 in 10.0 mi NNW 5.8 mph - N/A   Clear
10:15 PM 33.8 °F 28.6 °F 15.8 °F 48% 30.05 in 10.0 mi NNW 5.8 mph - N/A   Clear
10:35 PM 33.8 °F 28.6 °F 15.8 °F 48% 30.04 in 10.0 mi NNW 5.8 mph - N/A   Clear
10:55 PM 33.8 °F 26.4 °F 15.8 °F 48% 30.04 in 10.0 mi NW 9.2 mph - N/A   Clear
11:15 PM 30.2 °F 21.9 °F 15.8 °F 55% 30.04 in 10.0 mi NW 9.2 mph - N/A   Clear
11:35 PM 30.2 °F 24.3 °F 15.8 °F 55% 30.04 in 10.0 mi NNW 5.8 mph - N/A   Clear
11:55 PM 32.0 °F 28.7 °F 15.8 °F 51% 30.04 in 10.0 mi NNW 3.5 mph - N/A   Clear